createdAt,value
2017-06-30T00:00:51.568Z,0
2017-06-30T00:01:51.580Z,0
2017-06-30T00:02:51.292Z,0
2017-06-30T00:03:52.193Z,0
2017-06-30T00:04:51.668Z,0
2017-06-30T00:05:52.008Z,0
2017-06-30T00:06:51.409Z,0
2017-06-30T00:07:52.066Z,0
2017-06-30T00:08:51.763Z,0
2017-06-30T00:09:51.804Z,0
2017-06-30T00:10:51.839Z,0
2017-06-30T00:11:52.184Z,0
2017-06-30T00:12:52.198Z,0
2017-06-30T00:13:52.162Z,0
2017-06-30T00:14:51.332Z,0
2017-06-30T00:15:51.977Z,0
2017-06-30T00:16:51.997Z,0
2017-06-30T00:17:52.345Z,0
2017-06-30T00:18:52.639Z,0
2017-06-30T00:19:52.397Z,0
2017-06-30T00:20:52.117Z,0
2017-06-30T00:21:52.153Z,0
2017-06-30T00:22:51.861Z,0
2017-06-30T00:23:52.500Z,0
2017-06-30T00:24:52.228Z,0
2017-06-30T00:25:52.256Z,0
2017-06-30T00:26:52.293Z,0
2017-06-30T00:27:52.626Z,0
2017-06-30T00:28:52.907Z,0
2017-06-30T00:29:52.063Z,0
2017-06-30T00:30:52.084Z,0
2017-06-30T00:31:52.733Z,0
2017-06-30T00:32:52.453Z,0
2017-06-30T00:33:53.099Z,0
2017-06-30T00:34:52.827Z,0
2017-06-30T00:35:52.224Z,0
2017-06-30T00:36:52.592Z,0
2017-06-30T00:37:52.608Z,0
2017-06-30T00:38:53.235Z,0
2017-06-30T00:39:52.340Z,0
2017-06-30T00:40:52.983Z,0
2017-06-30T00:41:52.701Z,0
2017-06-30T00:42:53.054Z,0
2017-06-30T00:43:53.362Z,0
2017-06-30T00:44:53.092Z,0
2017-06-30T00:45:52.508Z,0
2017-06-30T00:46:53.157Z,0
2017-06-30T00:47:53.186Z,0
2017-06-30T00:48:53.466Z,0
2017-06-30T00:49:53.243Z,0
2017-06-30T00:50:53.268Z,0
2017-06-30T00:51:52.681Z,0
2017-06-30T00:52:53.315Z,0
2017-06-30T00:53:53.338Z,0
2017-06-30T00:54:53.387Z,0
2017-06-30T00:55:53.420Z,0
2017-06-30T00:56:53.134Z,0
2017-06-30T00:57:53.156Z,0
2017-06-30T00:58:53.482Z,0
2017-06-30T00:59:53.531Z,0
2017-06-30T01:00:52.929Z,0
2017-06-30T01:01:52.949Z,0
2017-06-30T01:02:53.597Z,0
2017-06-30T01:03:53.935Z,0
2017-06-30T01:04:53.339Z,0
2017-06-30T01:05:53.381Z,0
2017-06-30T01:06:53.409Z,0
2017-06-30T01:07:53.432Z,0
2017-06-30T01:08:53.713Z,0
2017-06-30T01:09:53.806Z,0
2017-06-30T01:10:53.836Z,0
2017-06-30T01:11:53.548Z,0
2017-06-30T01:12:53.881Z,0
2017-06-30T01:13:53.897Z,0
2017-06-30T01:14:53.323Z,0
2017-06-30T01:15:53.669Z,0
2017-06-30T01:16:53.996Z,0
2017-06-30T01:17:54.026Z,0
2017-06-30T01:18:54.354Z,0
2017-06-30T01:19:53.467Z,0
2017-06-30T01:20:54.121Z,0
2017-06-30T01:21:54.148Z,0
2017-06-30T01:22:54.165Z,0
2017-06-30T01:23:54.491Z,0
2017-06-30T01:24:54.231Z,0
2017-06-30T01:25:53.937Z,0
2017-06-30T01:26:53.968Z,0
2017-06-30T01:27:54.314Z,0
2017-06-30T01:28:54.330Z,0
2017-06-30T01:29:54.060Z,0
2017-06-30T01:30:54.392Z,0
2017-06-30T01:31:54.118Z,0
2017-06-30T01:32:54.138Z,0
2017-06-30T01:33:54.162Z,0
2017-06-30T01:34:54.495Z,0
2017-06-30T01:35:54.532Z,0
2017-06-30T01:36:54.553Z,0
2017-06-30T01:37:54.286Z,0
2017-06-30T01:38:54.311Z,0
2017-06-30T01:39:54.643Z,0
2017-06-30T01:40:54.361Z,0
2017-06-30T01:41:54.397Z,0
2017-06-30T01:42:53.789Z,0
2017-06-30T01:43:54.478Z,0
2017-06-30T01:44:54.467Z,0
2017-06-30T01:45:54.496Z,0
2017-06-30T01:46:54.524Z,0
2017-06-30T01:47:54.557Z,0
2017-06-30T01:48:54.599Z,0
2017-06-30T01:49:54.607Z,0
2017-06-30T01:50:54.638Z,0
2017-06-30T01:51:54.349Z,0
2017-06-30T01:52:54.693Z,0
2017-06-30T01:53:54.726Z,0
2017-06-30T01:54:54.744Z,0
2017-06-30T01:55:55.091Z,0
2017-06-30T01:56:54.796Z,0
2017-06-30T01:57:54.512Z,0
2017-06-30T01:58:55.174Z,0
2017-06-30T01:59:54.879Z,0
2017-06-30T02:00:55.288Z,0
2017-06-30T02:01:55.261Z,0
2017-06-30T02:02:54.957Z,0
2017-06-30T02:03:54.690Z,0
2017-06-30T02:04:54.966Z,0
2017-06-30T02:05:55.364Z,0
2017-06-30T02:06:55.399Z,0
2017-06-30T02:07:55.117Z,0
2017-06-30T02:08:55.455Z,0
2017-06-30T02:09:55.775Z,0
2017-06-30T02:10:54.896Z,0
2017-06-30T02:11:55.533Z,0
2017-06-30T02:12:55.567Z,0
2017-06-30T02:13:55.599Z,0
2017-06-30T02:14:55.879Z,0
2017-06-30T02:15:55.336Z,0
2017-06-30T02:16:55.686Z,0
2017-06-30T02:17:55.402Z,0
2017-06-30T02:18:55.418Z,0
2017-06-30T02:19:55.391Z,0
2017-06-30T02:20:55.484Z,0
2017-06-30T02:21:55.812Z,0
2017-06-30T02:22:55.853Z,0
2017-06-30T02:23:55.562Z,0
2017-06-30T02:24:55.524Z,0
2017-06-30T02:25:55.921Z,0
2017-06-30T02:26:55.641Z,0
2017-06-30T02:27:55.678Z,0
2017-06-30T02:28:55.710Z,0
2017-06-30T02:29:56.322Z,0
2017-06-30T02:30:55.447Z,0
2017-06-30T02:31:56.085Z,0
2017-06-30T02:32:55.514Z,0
2017-06-30T02:33:55.538Z,0
2017-06-30T02:34:56.111Z,0
2017-06-30T02:35:56.212Z,0
2017-06-30T02:36:55.928Z,0
2017-06-30T02:37:55.952Z,0
2017-06-30T02:38:56.293Z,0
2017-06-30T02:39:56.619Z,0
2017-06-30T02:40:56.040Z,0
2017-06-30T02:41:56.374Z,0
2017-06-30T02:42:55.808Z,0
2017-06-30T02:43:55.808Z,0
2017-06-30T02:44:56.719Z,0
2017-06-30T02:45:56.493Z,0
2017-06-30T02:46:56.510Z,0
2017-06-30T02:47:56.546Z,0
2017-06-30T02:48:56.582Z,0
2017-06-30T02:49:56.579Z,0
2017-06-30T02:50:56.308Z,0
2017-06-30T02:51:56.332Z,0
2017-06-30T02:52:56.051Z,0
2017-06-30T02:53:56.695Z,0
2017-06-30T02:54:56.727Z,0
2017-06-30T02:55:56.444Z,0
2017-06-30T02:56:56.789Z,0
2017-06-30T02:57:56.815Z,0
2017-06-30T02:58:56.855Z,0
2017-06-30T02:59:57.119Z,0
2017-06-30T03:00:56.588Z,0
2017-06-30T03:01:56.937Z,0
2017-06-30T03:02:56.953Z,0
2017-06-30T03:03:57.000Z,0
2017-06-30T03:04:57.307Z,0
2017-06-30T03:05:56.727Z,4
2017-06-30T03:06:57.057Z,4
2017-06-30T03:07:56.773Z,4
2017-06-30T03:08:57.170Z,4
2017-06-30T03:09:57.087Z,4
2017-06-30T03:10:56.871Z,4
2017-06-30T03:11:56.897Z,4
2017-06-30T03:12:56.614Z,8
2017-06-30T03:13:56.939Z,4
2017-06-30T03:14:57.543Z,8
2017-06-30T03:15:56.688Z,8
2017-06-30T03:16:57.341Z,8
2017-06-30T03:17:57.385Z,12
2017-06-30T03:18:57.086Z,12
2017-06-30T03:19:57.675Z,12
2017-06-30T03:20:57.467Z,16
2017-06-30T03:21:57.180Z,16
2017-06-30T03:22:57.253Z,20
2017-06-30T03:23:57.242Z,20
2017-06-30T03:24:57.883Z,24
2017-06-30T03:25:57.272Z,24
2017-06-30T03:26:57.304Z,28
2017-06-30T03:27:57.658Z,28
2017-06-30T03:28:57.687Z,32
2017-06-30T03:29:57.979Z,36
2017-06-30T03:30:57.748Z,40
2017-06-30T03:31:57.761Z,44
2017-06-30T03:32:57.484Z,48
2017-06-30T03:33:57.826Z,48
2017-06-30T03:34:58.148Z,52
2017-06-30T03:35:57.876Z,60
2017-06-30T03:36:57.912Z,60
2017-06-30T03:37:57.296Z,64
2017-06-30T03:38:57.967Z,68
2017-06-30T03:39:58.286Z,72
2017-06-30T03:40:57.700Z,76
2017-06-30T03:41:58.036Z,80
2017-06-30T03:42:57.794Z,84
2017-06-30T03:43:57.787Z,88
2017-06-30T03:44:58.427Z,96
2017-06-30T03:45:57.837Z,96
2017-06-30T03:46:57.877Z,104
2017-06-30T03:47:58.209Z,104
2017-06-30T03:48:57.918Z,112
2017-06-30T03:49:58.523Z,120
2017-06-30T03:50:57.663Z,120
2017-06-30T03:51:58.005Z,128
2017-06-30T03:52:58.349Z,136
2017-06-30T03:53:57.746Z,140
2017-06-30T03:54:58.386Z,144
2017-06-30T03:55:58.136Z,156
2017-06-30T03:56:58.141Z,156
2017-06-30T03:57:58.481Z,168
2017-06-30T03:58:58.209Z,180
2017-06-30T03:59:57.914Z,188
2017-06-30T04:00:58.568Z,200
2017-06-30T04:01:58.284Z,208
2017-06-30T04:02:58.325Z,212
2017-06-30T04:03:58.655Z,224
2017-06-30T04:04:58.055Z,244
2017-06-30T04:05:58.952Z,248
2017-06-30T04:06:58.420Z,244
2017-06-30T04:07:58.757Z,272
2017-06-30T04:08:58.470Z,292
2017-06-30T04:09:58.510Z,288
2017-06-30T04:10:58.788Z,268
2017-06-30T04:11:58.876Z,276
2017-06-30T04:12:58.904Z,312
2017-06-30T04:13:57.995Z,344
2017-06-30T04:14:58.959Z,348
2017-06-30T04:15:59.242Z,336
2017-06-30T04:16:59.016Z,332
2017-06-30T04:17:58.733Z,348
2017-06-30T04:18:58.754Z,352
2017-06-30T04:19:59.098Z,364
2017-06-30T04:20:59.367Z,448
2017-06-30T04:21:58.822Z,444
2017-06-30T04:22:59.181Z,452
2017-06-30T04:23:59.203Z,460
2017-06-30T04:24:58.927Z,404
2017-06-30T04:25:59.511Z,384
2017-06-30T04:26:59.288Z,388
2017-06-30T04:27:58.993Z,392
2017-06-30T04:28:58.709Z,408
2017-06-30T04:29:59.095Z,360
2017-06-30T04:30:59.076Z,364
2017-06-30T04:31:59.104Z,412
2017-06-30T04:32:59.464Z,500
2017-06-30T04:33:59.178Z,444
2017-06-30T04:34:59.207Z,460
2017-06-30T04:35:59.164Z,420
2017-06-30T04:36:59.568Z,304
2017-06-30T04:37:59.286Z,280
2017-06-30T04:38:59.330Z,260
2017-06-30T04:39:59.327Z,228
2017-06-30T04:40:59.617Z,252
2017-06-30T04:41:59.388Z,240
2017-06-30T04:42:59.430Z,252
2017-06-30T04:43:59.442Z,336
2017-06-30T04:44:59.163Z,364
2017-06-30T04:45:59.807Z,352
2017-06-30T04:46:59.523Z,340
2017-06-30T04:47:59.556Z,344
2017-06-30T04:48:59.902Z,336
2017-06-30T04:49:59.916Z,332
2017-06-30T04:51:00.247Z,380
2017-06-30T04:51:59.673Z,448
2017-06-30T04:52:59.998Z,476
2017-06-30T04:54:00.029Z,508
2017-06-30T04:55:00.067Z,468
2017-06-30T04:56:00.079Z,472
2017-06-30T04:56:59.800Z,452
2017-06-30T04:57:59.832Z,484
2017-06-30T04:58:59.870Z,464
2017-06-30T05:00:00.253Z,628
2017-06-30T05:01:00.495Z,736
2017-06-30T05:01:59.952Z,664
2017-06-30T05:03:00.341Z,516
2017-06-30T05:03:59.993Z,684
2017-06-30T05:05:00.343Z,628
2017-06-30T05:06:00.380Z,764
2017-06-30T05:07:00.393Z,620
2017-06-30T05:07:59.797Z,764
2017-06-30T05:09:00.454Z,700
2017-06-30T05:10:00.478Z,660
2017-06-30T05:11:00.494Z,752
2017-06-30T05:12:00.524Z,1052
2017-06-30T05:13:00.561Z,968
2017-06-30T05:14:00.582Z,960
2017-06-30T05:15:00.298Z,1064
2017-06-30T05:16:00.650Z,1144
2017-06-30T05:17:00.350Z,872
2017-06-30T05:18:00.697Z,856
2017-06-30T05:19:00.097Z,916
2017-06-30T05:20:00.430Z,928
2017-06-30T05:21:00.762Z,832
2017-06-30T05:22:00.815Z,900
2017-06-30T05:23:00.840Z,788
2017-06-30T05:24:00.561Z,832
2017-06-30T05:25:00.590Z,1104
2017-06-30T05:26:00.922Z,884
2017-06-30T05:27:00.631Z,952
2017-06-30T05:28:00.340Z,1348
2017-06-30T05:29:00.689Z,1384
2017-06-30T05:30:00.723Z,1312
2017-06-30T05:31:01.048Z,1196
2017-06-30T05:32:00.766Z,1284
2017-06-30T05:33:00.804Z,1188
2017-06-30T05:34:00.518Z,1320
2017-06-30T05:35:00.854Z,1208
2017-06-30T05:36:00.892Z,1188
2017-06-30T05:37:01.463Z,1288
2017-06-30T05:38:00.932Z,1120
2017-06-30T05:39:00.342Z,1116
2017-06-30T05:40:01.303Z,1192
2017-06-30T05:41:01.003Z,1388
2017-06-30T05:42:01.615Z,1436
2017-06-30T05:43:01.392Z,1460
2017-06-30T05:44:01.116Z,1480
2017-06-30T05:45:01.446Z,1560
2017-06-30T05:46:01.158Z,1604
2017-06-30T05:47:01.439Z,1700
2017-06-30T05:48:01.212Z,1772
2017-06-30T05:49:01.548Z,1828
2017-06-30T05:50:00.954Z,1688
2017-06-30T05:51:01.611Z,1684
2017-06-30T05:52:01.891Z,1676
2017-06-30T05:53:01.692Z,1616
2017-06-30T05:54:01.689Z,1372
2017-06-30T05:55:01.102Z,1552
2017-06-30T05:56:01.426Z,1760
2017-06-30T05:57:02.015Z,1804
2017-06-30T05:58:01.481Z,1640
2017-06-30T05:59:01.820Z,1600
2017-06-30T06:00:01.864Z,1556
2017-06-30T06:01:01.575Z,1052
2017-06-30T06:02:01.900Z,1204
2017-06-30T06:03:01.631Z,1664
2017-06-30T06:04:01.672Z,1584
2017-06-30T06:05:01.383Z,1720
2017-06-30T06:06:01.709Z,1536
2017-06-30T06:07:02.313Z,1500
2017-06-30T06:08:01.759Z,1364
2017-06-30T06:09:01.796Z,1084
2017-06-30T06:10:01.830Z,932
2017-06-30T06:11:01.853Z,1044
2017-06-30T06:12:02.124Z,1320
2017-06-30T06:13:02.221Z,1560
2017-06-30T06:14:02.253Z,1648
2017-06-30T06:15:02.261Z,1452
2017-06-30T06:16:01.978Z,1264
2017-06-30T06:17:02.316Z,1148
2017-06-30T06:18:01.424Z,1028
2017-06-30T06:19:02.068Z,908
2017-06-30T06:20:02.106Z,908
2017-06-30T06:21:02.455Z,1052
2017-06-30T06:22:02.424Z,1048
2017-06-30T06:23:02.181Z,1048
2017-06-30T06:24:02.532Z,964
2017-06-30T06:25:01.618Z,944
2017-06-30T06:26:02.265Z,908
2017-06-30T06:27:02.857Z,920
2017-06-30T06:28:02.635Z,940
2017-06-30T06:29:02.680Z,920
2017-06-30T06:30:02.701Z,1104
2017-06-30T06:31:02.759Z,1228
2017-06-30T06:32:02.734Z,1564
2017-06-30T06:33:02.788Z,1584
2017-06-30T06:34:01.869Z,1772
2017-06-30T06:35:02.825Z,1700
2017-06-30T06:36:02.574Z,1596
2017-06-30T06:37:02.877Z,1736
2017-06-30T06:38:02.904Z,1592
2017-06-30T06:39:02.938Z,1248
2017-06-30T06:40:02.654Z,1580
2017-06-30T06:41:02.986Z,1852
2017-06-30T06:42:03.278Z,1704
2017-06-30T06:43:02.754Z,1820
2017-06-30T06:44:03.076Z,1884
2017-06-30T06:45:03.114Z,1956
2017-06-30T06:46:02.822Z,1388
2017-06-30T06:47:03.410Z,1376
2017-06-30T06:48:03.196Z,1240
2017-06-30T06:49:03.216Z,1508
2017-06-30T06:50:02.933Z,1184
2017-06-30T06:51:02.962Z,1388
2017-06-30T06:52:03.565Z,2096
2017-06-30T06:53:03.015Z,2592
2017-06-30T06:54:03.052Z,1384
2017-06-30T06:55:03.413Z,964
2017-06-30T06:56:03.426Z,920
2017-06-30T06:57:03.127Z,1568
2017-06-30T06:58:03.164Z,2820
2017-06-30T06:59:02.872Z,3004
2017-06-30T07:00:03.517Z,1976
2017-06-30T07:01:03.246Z,1592
2017-06-30T07:02:03.274Z,1664
2017-06-30T07:03:03.607Z,1356
2017-06-30T07:04:03.636Z,1940
2017-06-30T07:05:03.040Z,3432
2017-06-30T07:06:03.689Z,3156
2017-06-30T07:07:03.714Z,2908
2017-06-30T07:08:03.755Z,1860
2017-06-30T07:09:03.768Z,1416
2017-06-30T07:10:03.809Z,1124
2017-06-30T07:11:03.826Z,1736
2017-06-30T07:12:03.871Z,1552
2017-06-30T07:13:03.880Z,1224
2017-06-30T07:14:02.984Z,1388
2017-06-30T07:15:03.946Z,1348
2017-06-30T07:16:03.969Z,1488
2017-06-30T07:17:03.995Z,1856
2017-06-30T07:18:03.964Z,2212
2017-06-30T07:19:04.060Z,2012
2017-06-30T07:20:03.776Z,2396
2017-06-30T07:21:03.806Z,2072
2017-06-30T07:22:03.835Z,2900
2017-06-30T07:23:03.788Z,3268
2017-06-30T07:24:03.884Z,2976
2017-06-30T07:25:03.325Z,2764
2017-06-30T07:26:03.931Z,2432
2017-06-30T07:27:04.295Z,2428
2017-06-30T07:28:04.260Z,2880
2017-06-30T07:29:04.032Z,2756
2017-06-30T07:30:04.358Z,2332
2017-06-30T07:31:04.070Z,2548
2017-06-30T07:32:03.486Z,2480
2017-06-30T07:33:04.386Z,2240
2017-06-30T07:34:04.460Z,1980
2017-06-30T07:35:04.511Z,1928
2017-06-30T07:36:04.518Z,3084
2017-06-30T07:37:04.563Z,4004
2017-06-30T07:38:04.204Z,3600
2017-06-30T07:39:03.983Z,3268
2017-06-30T07:40:04.016Z,3216
2017-06-30T07:41:04.355Z,3336
2017-06-30T07:42:04.386Z,3296
2017-06-30T07:43:04.676Z,3604
2017-06-30T07:44:04.752Z,3696
2017-06-30T07:45:04.785Z,3376
2017-06-30T07:46:04.501Z,3016
2017-06-30T07:47:04.838Z,2860
2017-06-30T07:48:04.494Z,3352
2017-06-30T07:49:04.909Z,3212
2017-06-30T07:50:04.613Z,3224
2017-06-30T07:51:04.953Z,3148
2017-06-30T07:52:04.679Z,3000
2017-06-30T07:53:05.272Z,3236
2017-06-30T07:54:04.737Z,2876
2017-06-30T07:55:04.752Z,2736
2017-06-30T07:56:04.469Z,3148
2017-06-30T07:57:04.495Z,3144
2017-06-30T07:58:05.407Z,3044
2017-06-30T07:59:05.183Z,3412
2017-06-30T08:00:05.213Z,3140
2017-06-30T08:01:04.918Z,2456
2017-06-30T08:02:04.962Z,2208
2017-06-30T08:03:04.931Z,3308
2017-06-30T08:04:05.317Z,3472
2017-06-30T08:05:05.346Z,2860
2017-06-30T08:06:05.067Z,2436
2017-06-30T08:07:05.087Z,1448
2017-06-30T08:08:05.367Z,1648
2017-06-30T08:09:05.463Z,1980
2017-06-30T08:10:05.500Z,2176
2017-06-30T08:11:05.212Z,2852
2017-06-30T08:12:05.595Z,3312
2017-06-30T08:13:05.506Z,3524
2017-06-30T08:14:05.299Z,4240
2017-06-30T08:15:05.008Z,4216
2017-06-30T08:16:05.034Z,4040
2017-06-30T08:17:05.374Z,3552
2017-06-30T08:18:05.379Z,4132
2017-06-30T08:19:05.428Z,4496
2017-06-30T08:20:05.139Z,4312
2017-06-30T08:21:05.806Z,4248
2017-06-30T08:22:05.835Z,4332
2017-06-30T08:23:05.787Z,4824
2017-06-30T08:24:05.567Z,4304
2017-06-30T08:25:05.909Z,4152
2017-06-30T08:26:05.625Z,4176
2017-06-30T08:27:05.665Z,4236
2017-06-30T08:28:06.247Z,3964
2017-06-30T08:29:06.024Z,3720
2017-06-30T08:30:05.136Z,4140
2017-06-30T08:31:05.779Z,4680
2017-06-30T08:32:06.117Z,4928
2017-06-30T08:33:06.078Z,4820
2017-06-30T08:34:06.163Z,4372
2017-06-30T08:35:06.233Z,4388
2017-06-30T08:36:05.921Z,4756
2017-06-30T08:37:06.257Z,4664
2017-06-30T08:38:06.218Z,4488
2017-06-30T08:39:05.683Z,4764
2017-06-30T08:40:06.340Z,5372
2017-06-30T08:41:06.045Z,5400
2017-06-30T08:42:05.787Z,5196
2017-06-30T08:43:06.091Z,5044
2017-06-30T08:44:06.144Z,4664
2017-06-30T08:45:06.473Z,4780
2017-06-30T08:46:06.521Z,4384
2017-06-30T08:47:06.226Z,3944
2017-06-30T08:48:06.822Z,3504
2017-06-30T08:49:06.604Z,4300
2017-06-30T08:50:06.633Z,4756
2017-06-30T08:51:06.651Z,4000
2017-06-30T08:52:06.058Z,2776
2017-06-30T08:53:06.403Z,4228
2017-06-30T08:54:06.420Z,4048
2017-06-30T08:55:06.753Z,3764
2017-06-30T08:56:06.794Z,4308
2017-06-30T08:57:06.824Z,3764
2017-06-30T08:58:06.859Z,2892
2017-06-30T08:59:06.899Z,3348
2017-06-30T09:00:06.604Z,3760
2017-06-30T09:01:06.946Z,2816
2017-06-30T09:02:06.961Z,3556
2017-06-30T09:03:06.991Z,4996
2017-06-30T09:04:07.033Z,4736
2017-06-30T09:05:07.060Z,4648
2017-06-30T09:06:06.777Z,4332
2017-06-30T09:07:07.115Z,3956
2017-06-30T09:08:07.147Z,3556
2017-06-30T09:09:06.864Z,3380
2017-06-30T09:10:06.264Z,3796
2017-06-30T09:11:06.613Z,3108
2017-06-30T09:12:07.287Z,2852
2017-06-30T09:13:06.963Z,2816
2017-06-30T09:14:06.944Z,4364
2017-06-30T09:15:07.021Z,3632
2017-06-30T09:16:06.735Z,1880
2017-06-30T09:17:07.095Z,1728
2017-06-30T09:18:07.444Z,1508
2017-06-30T09:19:07.774Z,1808
2017-06-30T09:20:07.483Z,3256
2017-06-30T09:21:07.506Z,4280
2017-06-30T09:22:07.531Z,3356
2017-06-30T09:23:07.591Z,3468
2017-06-30T09:24:07.629Z,3520
2017-06-30T09:25:07.320Z,2576
2017-06-30T09:26:07.025Z,2188
2017-06-30T09:27:07.362Z,2288
2017-06-30T09:28:07.396Z,1368
2017-06-30T09:29:07.672Z,1280
2017-06-30T09:30:07.467Z,1276
2017-06-30T09:31:07.774Z,1812
2017-06-30T09:32:07.194Z,3060
2017-06-30T09:33:07.532Z,3276
2017-06-30T09:34:07.916Z,4500
2017-06-30T09:35:07.904Z,4700
2017-06-30T09:36:07.608Z,4860
2017-06-30T09:37:07.970Z,4652
2017-06-30T09:38:07.978Z,4676
2017-06-30T09:39:07.648Z,4180
2017-06-30T09:40:08.031Z,4900
2017-06-30T09:41:07.452Z,5760
2017-06-30T09:42:08.096Z,5336
2017-06-30T09:43:07.831Z,3768
2017-06-30T09:44:08.101Z,3500
2017-06-30T09:45:07.889Z,4080
2017-06-30T09:46:07.596Z,4400
2017-06-30T09:47:07.930Z,4748
2017-06-30T09:48:07.966Z,5004
2017-06-30T09:49:08.551Z,4684
2017-06-30T09:50:07.713Z,3068
2017-06-30T09:51:08.045Z,2632
2017-06-30T09:52:08.383Z,1856
2017-06-30T09:53:08.426Z,1724
2017-06-30T09:54:08.122Z,3348
2017-06-30T09:55:08.459Z,5616
2017-06-30T09:56:08.189Z,5252
2017-06-30T09:57:08.525Z,5172
2017-06-30T09:58:08.559Z,5360
2017-06-30T09:59:08.529Z,6172
2017-06-30T10:00:08.626Z,6208
2017-06-30T10:01:08.658Z,6620
2017-06-30T10:02:08.677Z,6336
2017-06-30T10:03:08.706Z,6232
2017-06-30T10:04:08.423Z,6128
2017-06-30T10:05:08.439Z,6660
2017-06-30T10:06:08.779Z,6016
2017-06-30T10:07:08.809Z,5408
2017-06-30T10:08:08.530Z,4796
2017-06-30T10:09:08.891Z,4108
2017-06-30T10:10:08.591Z,5108
2017-06-30T10:11:08.929Z,5140
2017-06-30T10:12:08.333Z,5248
2017-06-30T10:13:08.678Z,4688
2017-06-30T10:14:08.708Z,4196
2017-06-30T10:15:08.671Z,4344
2017-06-30T10:16:09.072Z,3532
2017-06-30T10:17:09.091Z,4028
2017-06-30T10:18:08.822Z,3412
2017-06-30T10:19:08.860Z,2524
2017-06-30T10:20:09.132Z,3500
2017-06-30T10:21:09.221Z,6172
2017-06-30T10:22:09.254Z,5836
2017-06-30T10:23:09.270Z,5492
2017-06-30T10:24:08.691Z,5284
2017-06-30T10:25:09.267Z,4124
2017-06-30T10:26:09.048Z,3508
2017-06-30T10:27:09.385Z,2792
2017-06-30T10:28:09.426Z,2972
2017-06-30T10:29:09.452Z,4488
2017-06-30T10:30:09.112Z,5656
2017-06-30T10:31:08.886Z,5764
2017-06-30T10:32:09.526Z,6972
2017-06-30T10:33:08.946Z,6556
2017-06-30T10:34:09.270Z,5248
2017-06-30T10:35:09.880Z,4608
2017-06-30T10:36:09.636Z,3360
2017-06-30T10:37:09.045Z,3332
2017-06-30T10:38:09.397Z,3048
2017-06-30T10:39:09.113Z,3504
2017-06-30T10:40:09.748Z,4468
2017-06-30T10:41:09.480Z,6588
2017-06-30T10:42:09.830Z,7656
2017-06-30T10:43:09.533Z,7496
2017-06-30T10:44:09.875Z,7260
2017-06-30T10:45:09.853Z,7160
2017-06-30T10:46:09.933Z,6364
2017-06-30T10:47:09.977Z,6188
2017-06-30T10:48:10.002Z,6372
2017-06-30T10:49:10.034Z,6712
2017-06-30T10:50:10.040Z,7392
2017-06-30T10:51:09.781Z,7836
2017-06-30T10:52:10.113Z,7544
2017-06-30T10:53:10.141Z,7724
2017-06-30T10:54:10.184Z,6852
2017-06-30T10:55:10.188Z,6692
2017-06-30T10:56:09.917Z,7288
2017-06-30T10:57:09.949Z,6836
2017-06-30T10:58:09.983Z,6300
2017-06-30T10:59:10.331Z,5576
2017-06-30T11:00:10.587Z,5088
2017-06-30T11:01:10.369Z,5000
2017-06-30T11:02:10.398Z,5968
2017-06-30T11:03:10.118Z,6728
2017-06-30T11:04:09.845Z,5700
2017-06-30T11:05:10.167Z,4956
2017-06-30T11:06:09.885Z,3756
2017-06-30T11:07:10.541Z,3252
2017-06-30T11:08:10.567Z,3536
2017-06-30T11:09:10.599Z,6176
2017-06-30T11:10:10.256Z,5784
2017-06-30T11:11:10.656Z,5688
2017-06-30T11:12:10.690Z,7408
2017-06-30T11:13:10.718Z,7172
2017-06-30T11:14:10.747Z,6928
2017-06-30T11:15:11.025Z,7496
2017-06-30T11:16:09.860Z,7364
2017-06-30T11:17:10.836Z,7472
2017-06-30T11:18:10.871Z,6524
2017-06-30T11:19:10.882Z,5992
2017-06-30T11:20:11.175Z,5960
2017-06-30T11:21:10.955Z,4484
2017-06-30T11:22:10.986Z,6352
2017-06-30T11:23:11.010Z,6940
2017-06-30T11:24:11.040Z,5364
2017-06-30T11:25:11.004Z,3684
2017-06-30T11:26:10.525Z,4396
2017-06-30T11:27:11.125Z,5996
2017-06-30T11:28:10.842Z,6016
2017-06-30T11:29:11.191Z,8384
2017-06-30T11:30:10.891Z,7136
2017-06-30T11:31:10.924Z,7536
2017-06-30T11:32:10.645Z,7820
2017-06-30T11:33:11.306Z,7236
2017-06-30T11:34:11.023Z,7164
2017-06-30T11:35:11.312Z,7332
2017-06-30T11:36:11.064Z,8168
2017-06-30T11:37:11.416Z,4012
2017-06-30T11:38:11.135Z,5236
2017-06-30T11:39:10.850Z,18756
2017-06-30T11:40:11.115Z,24096
2017-06-30T11:41:11.221Z,20512
2017-06-30T11:42:11.301Z,9460
2017-06-30T11:43:11.282Z,17112
2017-06-30T11:44:11.630Z,9556
2017-06-30T11:45:11.579Z,9372
2017-06-30T11:46:11.364Z,21120
2017-06-30T11:47:11.393Z,16236
2017-06-30T11:48:11.426Z,33952
2017-06-30T11:49:11.151Z,35392
2017-06-30T11:50:11.739Z,4144
2017-06-30T11:51:11.824Z,2560
2017-06-30T11:52:11.545Z,1464
2017-06-30T11:53:11.905Z,1420
2017-06-30T11:54:11.915Z,1772
2017-06-30T11:55:11.882Z,2504
2017-06-30T11:56:11.673Z,3516
2017-06-30T11:57:11.390Z,6224
2017-06-30T11:58:12.050Z,10664
2017-06-30T11:59:12.084Z,19552
2017-06-30T12:00:12.361Z,8388
2017-06-30T12:01:12.130Z,50208
2017-06-30T12:02:11.843Z,8664
2017-06-30T12:03:11.886Z,10532
2017-06-30T12:04:11.911Z,3360
2017-06-30T12:05:12.511Z,1704
2017-06-30T12:06:11.978Z,1320
2017-06-30T12:07:12.306Z,1368
2017-06-30T12:08:12.027Z,1644
2017-06-30T12:09:11.763Z,1812
2017-06-30T12:10:12.105Z,2144
2017-06-30T12:11:12.438Z,2712
2017-06-30T12:12:12.474Z,3904
2017-06-30T12:13:12.186Z,4344
2017-06-30T12:14:12.531Z,4480
2017-06-30T12:15:12.244Z,3460
2017-06-30T12:16:12.286Z,3812
2017-06-30T12:17:12.299Z,4896
2017-06-30T12:18:12.322Z,6848
2017-06-30T12:19:12.364Z,9068
2017-06-30T12:20:12.700Z,6868
2017-06-30T12:21:12.737Z,8152
2017-06-30T12:22:12.451Z,8568
2017-06-30T12:23:12.178Z,11904
2017-06-30T12:24:12.821Z,9992
2017-06-30T12:25:12.532Z,13368
2017-06-30T12:26:12.245Z,3796
2017-06-30T12:27:12.905Z,2312
2017-06-30T12:28:12.618Z,2104
2017-06-30T12:29:12.642Z,2832
2017-06-30T12:30:12.687Z,3424
2017-06-30T12:31:12.713Z,5320
2017-06-30T12:32:12.457Z,15420
2017-06-30T12:33:13.082Z,25248
2017-06-30T12:34:12.490Z,16748
2017-06-30T12:35:12.823Z,21440
2017-06-30T12:36:12.865Z,82272
2017-06-30T12:37:13.210Z,70496
2017-06-30T12:38:13.238Z,56480
2017-06-30T12:39:12.954Z,50912
2017-06-30T12:40:13.296Z,58688
2017-06-30T12:41:13.019Z,70272
2017-06-30T12:42:13.356Z,76096
2017-06-30T12:43:13.066Z,86784
2017-06-30T12:44:13.102Z,93472
2017-06-30T12:45:13.448Z,94528
2017-06-30T12:46:13.161Z,102912
2017-06-30T12:47:13.185Z,55168
2017-06-30T12:48:13.530Z,4816
2017-06-30T12:49:12.936Z,4476
2017-06-30T12:50:13.600Z,3812
2017-06-30T12:51:13.617Z,3324
2017-06-30T12:52:12.717Z,4176
2017-06-30T12:53:13.071Z,5932
2017-06-30T12:54:13.103Z,34432
2017-06-30T12:55:13.136Z,6064
2017-06-30T12:56:13.789Z,54016
2017-06-30T12:57:12.875Z,69216
2017-06-30T12:58:13.535Z,10192
2017-06-30T12:59:13.867Z,63680
2017-06-30T13:00:13.907Z,4396
2017-06-30T13:01:13.944Z,6468
2017-06-30T13:02:13.978Z,12844
2017-06-30T13:03:13.686Z,95168
2017-06-30T13:04:14.030Z,7448
2017-06-30T13:05:13.444Z,4204
2017-06-30T13:06:14.044Z,3264
2017-06-30T13:07:13.806Z,4280
2017-06-30T13:08:13.862Z,5932
2017-06-30T13:09:13.572Z,76832
2017-06-30T13:10:13.596Z,81376
2017-06-30T13:11:14.511Z,84832
2017-06-30T13:12:13.965Z,83328
2017-06-30T13:13:13.707Z,79744
2017-06-30T13:14:14.357Z,78720
2017-06-30T13:15:14.368Z,78496
2017-06-30T13:16:14.716Z,76928
2017-06-30T13:17:14.121Z,7756
2017-06-30T13:18:14.473Z,4996
2017-06-30T13:19:14.198Z,4484
2017-06-30T13:20:14.547Z,5116
2017-06-30T13:21:14.831Z,5600
2017-06-30T13:22:14.588Z,5556
2017-06-30T13:23:14.322Z,9256
2017-06-30T13:24:14.043Z,63392
2017-06-30T13:25:14.068Z,9556
2017-06-30T13:26:14.662Z,5968
2017-06-30T13:27:14.745Z,6192
2017-06-30T13:28:14.796Z,4120
2017-06-30T13:29:14.544Z,2488
2017-06-30T13:30:14.537Z,2124
2017-06-30T13:31:14.821Z,2024
2017-06-30T13:32:14.601Z,2208
2017-06-30T13:33:14.629Z,2312
2017-06-30T13:34:14.667Z,1784
2017-06-30T13:35:14.685Z,1812
2017-06-30T13:36:15.012Z,2184
2017-06-30T13:37:15.074Z,2424
2017-06-30T13:38:15.090Z,2588
2017-06-30T13:39:15.131Z,3296
2017-06-30T13:40:15.152Z,3976
2017-06-30T13:41:15.176Z,4228
2017-06-30T13:42:15.228Z,4160
2017-06-30T13:43:14.626Z,4160